createdAt,value
2023-01-07T00:01:39.305Z,100959.19
2023-01-07T00:04:10.719Z,100964.56
2023-01-07T00:06:41.635Z,100963.94
2023-01-07T00:09:16.744Z,100964.69
2023-01-07T00:11:45.975Z,100955.88
2023-01-07T00:14:15.284Z,100950.22
2023-01-07T00:16:43.662Z,100947.22
2023-01-07T00:19:15.321Z,100954.13
2023-01-07T00:21:43.845Z,100946.56
2023-01-07T00:24:12.333Z,100943.56
2023-01-07T00:26:40.925Z,100952.09
2023-01-07T00:29:09.390Z,100955.25
2023-01-07T00:31:40.838Z,100947.97
2023-01-07T00:34:09.571Z,100952.41
2023-01-07T00:36:44.438Z,100952.41
2023-01-07T00:39:19.801Z,100953.97
2023-01-07T00:42:07.696Z,100953.66
2023-01-07T00:44:36.976Z,100941.81
2023-01-07T00:47:05.104Z,100947.19
2023-01-07T00:49:32.628Z,100950.19
2023-01-07T00:52:00.746Z,100949.41
2023-01-07T00:54:28.729Z,100941.69
2023-01-07T00:56:56.899Z,100946.72
2023-01-07T00:59:24.676Z,100947.81
2023-01-07T01:01:52.590Z,100943.88
2023-01-07T01:04:20.420Z,100947.19
2023-01-07T01:06:48.367Z,100939.00
2023-01-07T01:09:15.868Z,100937.72
2023-01-07T01:11:43.773Z,100934.13
2023-01-07T01:14:12.940Z,100938.53
2023-01-07T01:16:40.915Z,100936.81
2023-01-07T01:19:08.490Z,100939.66
2023-01-07T01:21:36.682Z,100934.78
2023-01-07T01:24:04.539Z,100941.53
2023-01-07T01:26:32.367Z,100944.38
2023-01-07T01:28:59.898Z,100936.34
2023-01-07T01:31:27.809Z,100935.88
2023-01-07T01:33:57.068Z,100935.56
2023-01-07T01:36:25.782Z,100928.75
2023-01-07T01:38:57.538Z,100924.69
2023-01-07T01:41:27.677Z,100930.34
2023-01-07T01:43:57.330Z,100923.75
2023-01-07T01:46:34.360Z,100924.53
2023-01-07T01:49:27.253Z,100918.38
2023-01-07T01:52:11.801Z,100911.13
2023-01-07T01:54:44.161Z,100913.19
2023-01-07T01:57:12.229Z,100909.38
2023-01-07T01:59:44.520Z,100905.59
2023-01-07T02:02:22.038Z,100903.25
2023-01-07T02:04:50.490Z,100898.19
2023-01-07T02:07:19.107Z,100897.88
2023-01-07T02:10:18.492Z,100891.91
2023-01-07T02:12:53.503Z,100885.09
2023-01-07T02:15:32.940Z,100887.47
2023-01-07T02:18:51.633Z,100883.06
2023-01-07T02:21:27.888Z,100878.63
2023-01-07T02:24:18.726Z,100869.66
2023-01-07T02:27:39.303Z,100876.41
2023-01-07T02:30:48.307Z,100876.88
2023-01-07T02:33:41.375Z,100880.19
2023-01-07T02:36:33.096Z,100871.00
2023-01-07T02:39:25.547Z,100871.50
2023-01-07T02:42:12.266Z,100869.47
2023-01-07T02:45:02.481Z,100876.69
2023-01-07T02:47:54.711Z,100873.56
2023-01-07T02:50:22.791Z,100880.50
2023-01-07T02:52:51.700Z,100871.81
2023-01-07T02:55:46.342Z,100876.53
2023-01-07T02:58:33.146Z,100883.31
2023-01-07T03:01:27.541Z,100874.00
2023-01-07T03:04:45.370Z,100876.22
2023-01-07T03:07:40.300Z,100869.31
2023-01-07T03:10:57.143Z,100871.81
2023-01-07T03:13:54.751Z,100874.19
2023-01-07T03:16:40.451Z,100865.81
2023-01-07T03:19:30.524Z,100873.69
2023-01-07T03:22:02.296Z,100872.25
2023-01-07T03:24:33.313Z,100868.47
2023-01-07T03:27:04.837Z,100869.41
2023-01-07T03:29:33.285Z,100872.22
2023-01-07T03:32:16.584Z,100867.00
2023-01-07T03:34:45.685Z,100869.84
2023-01-07T03:37:20.022Z,100868.09
2023-01-07T03:39:49.255Z,100868.09
2023-01-07T03:42:41.925Z,100863.66
2023-01-07T03:45:25.122Z,100866.34
2023-01-07T03:47:57.818Z,100866.78
2023-01-07T03:50:30.683Z,100859.69
2023-01-07T03:52:58.615Z,100856.50
2023-01-07T03:55:26.612Z,100857.88
2023-01-07T03:57:57.876Z,100855.34
2023-01-07T04:00:26.825Z,100848.03
2023-01-07T04:03:05.477Z,100852.28
2023-01-07T04:05:37.669Z,100855.44
2023-01-07T04:08:06.061Z,100860.16
2023-01-07T04:10:37.037Z,100854.13
2023-01-07T04:13:05.032Z,100855.09
2023-01-07T04:15:32.823Z,100859.19
2023-01-07T04:18:00.947Z,100852.56
2023-01-07T04:20:29.321Z,100847.84
2023-01-07T04:22:57.494Z,100848.19
2023-01-07T04:25:25.063Z,100849.75
2023-01-07T04:27:53.447Z,100847.06
2023-01-07T04:30:22.338Z,100851.00
2023-01-07T04:32:51.429Z,100847.84
2023-01-07T04:35:19.183Z,100852.94
2023-01-07T04:37:47.218Z,100845.47
2023-01-07T04:40:14.929Z,100848.50
2023-01-07T04:42:42.943Z,100848.72
2023-01-07T04:45:11.421Z,100849.56
2023-01-07T04:47:39.338Z,100848.22
2023-01-07T04:50:08.079Z,100848.88
2023-01-07T04:52:38.885Z,100842.75
2023-01-07T04:55:08.248Z,100840.06
2023-01-07T04:57:36.257Z,100845.09
2023-01-07T05:00:05.703Z,100843.81
2023-01-07T05:02:34.663Z,100835.00
2023-01-07T05:05:03.446Z,100841.88
2023-01-07T05:07:31.849Z,100843.56
2023-01-07T05:10:00.178Z,100843.22
2023-01-07T05:12:29.413Z,100843.78
2023-01-07T05:14:57.164Z,100843.91
2023-01-07T05:17:25.514Z,100845.13
2023-01-07T05:19:53.885Z,100844.78
2023-01-07T05:22:21.944Z,100840.69
2023-01-07T05:24:49.709Z,100846.03
2023-01-07T05:27:18.946Z,100847.41
2023-01-07T05:29:46.628Z,100844.09
2023-01-07T05:32:14.596Z,100845.59
2023-01-07T05:34:42.723Z,100843.06
2023-01-07T05:37:10.640Z,100849.34
2023-01-07T05:39:39.995Z,100850.25
2023-01-07T05:42:09.227Z,100846.78
2023-01-07T05:44:36.830Z,100854.78
2023-01-07T05:47:04.778Z,100853.81
2023-01-07T05:49:32.351Z,100849.38
2023-01-07T05:52:00.197Z,100844.34
2023-01-07T05:54:27.725Z,100847.63
2023-01-07T05:56:55.807Z,100849.19
2023-01-07T05:59:23.421Z,100850.78
2023-01-07T06:01:51.383Z,100844.97
2023-01-07T06:04:19.074Z,100853.56
2023-01-07T06:06:47.199Z,100847.28
2023-01-07T06:09:14.918Z,100842.06
2023-01-07T06:11:42.928Z,100848.78
2023-01-07T06:14:10.544Z,100849.38
2023-01-07T06:16:38.433Z,100849.66
2023-01-07T06:19:06.013Z,100850.59
2023-01-07T06:21:33.958Z,100842.34
2023-01-07T06:24:01.503Z,100845.66
2023-01-07T06:26:29.312Z,100845.13
2023-01-07T06:28:56.875Z,100845.75
2023-01-07T06:31:24.710Z,100847.31
2023-01-07T06:33:52.223Z,100846.53
2023-01-07T06:36:20.062Z,100842.78
2023-01-07T06:38:47.608Z,100838.91
2023-01-07T06:41:15.537Z,100840.16
2023-01-07T06:43:43.061Z,100842.66
2023-01-07T06:46:11.334Z,100849.38
2023-01-07T06:48:38.986Z,100844.31
2023-01-07T06:51:06.808Z,100846.28
2023-01-07T06:53:34.469Z,100848.22
2023-01-07T06:56:02.434Z,100849.38
2023-01-07T06:58:30.195Z,100859.16
2023-01-07T07:01:03.123Z,100857.31
2023-01-07T07:03:30.700Z,100868.50
2023-01-07T07:05:58.685Z,100865.06
2023-01-07T07:08:26.338Z,100863.16
2023-01-07T07:10:54.191Z,100865.69
2023-01-07T07:13:22.167Z,100869.81
2023-01-07T07:15:50.122Z,100864.78
2023-01-07T07:18:18.304Z,100868.25
2023-01-07T07:20:49.217Z,100868.59
2023-01-07T07:23:16.874Z,100867.00
2023-01-07T07:25:44.774Z,100862.44
2023-01-07T07:28:12.441Z,100862.88
2023-01-07T07:30:47.602Z,100863.66
2023-01-07T07:33:19.339Z,100869.81
2023-01-07T07:35:48.446Z,100877.50
2023-01-07T07:38:17.848Z,100871.34
2023-01-07T07:40:47.139Z,100867.03
2023-01-07T07:43:15.664Z,100862.78
2023-01-07T07:45:43.922Z,100866.50
2023-01-07T07:48:14.519Z,100860.97
2023-01-07T07:50:42.453Z,100863.78
2023-01-07T07:53:10.634Z,100862.84
2023-01-07T07:55:39.738Z,100865.34
2023-01-07T07:58:07.370Z,100868.94
2023-01-07T08:00:35.417Z,100863.38
2023-01-07T08:03:03.242Z,100864.31
2023-01-07T08:05:31.474Z,100855.97
2023-01-07T08:07:59.067Z,100866.03
2023-01-07T08:10:28.692Z,100860.00
2023-01-07T08:12:56.126Z,100860.00
2023-01-07T08:15:23.898Z,100859.41
2023-01-07T08:18:02.350Z,100865.97
2023-01-07T08:20:31.716Z,100863.69
2023-01-07T08:23:00.958Z,100857.75
2023-01-07T08:25:31.248Z,100864.88
2023-01-07T08:28:00.218Z,100881.75
2023-01-07T08:30:29.306Z,100872.19
2023-01-07T08:32:57.490Z,100864.63
2023-01-07T08:35:25.674Z,100875.00
2023-01-07T08:38:00.208Z,100868.72
2023-01-07T08:40:28.623Z,100880.69
2023-01-07T08:43:05.121Z,100879.75
2023-01-07T08:45:33.705Z,100879.91
2023-01-07T08:48:01.249Z,100877.72
2023-01-07T08:50:32.024Z,100872.97
2023-01-07T08:53:00.337Z,100878.50
2023-01-07T08:55:28.285Z,100880.72
2023-01-07T08:57:55.896Z,100880.72
2023-01-07T09:00:23.923Z,100881.97
2023-01-07T09:02:51.541Z,100876.28
2023-01-07T09:05:19.489Z,100873.44
2023-01-07T09:07:46.985Z,100873.13
2023-01-07T09:10:14.899Z,100874.72
2023-01-07T09:12:42.464Z,100875.50
2023-01-07T09:15:12.397Z,100874.25
2023-01-07T09:17:40.933Z,100873.13
2023-01-07T09:20:09.850Z,100872.81
2023-01-07T09:22:37.942Z,100864.78
2023-01-07T09:25:06.756Z,100871.25
2023-01-07T09:27:34.340Z,100859.44
2023-01-07T09:30:02.252Z,100861.66
2023-01-07T09:32:30.594Z,100854.53
2023-01-07T09:34:58.486Z,100847.00
2023-01-07T09:37:26.047Z,100845.25
2023-01-07T09:39:54.019Z,100839.59
2023-01-07T09:42:56.718Z,100835.16
2023-01-07T09:45:52.171Z,100830.28
2023-01-07T09:48:46.674Z,100818.28
2023-01-07T09:51:36.478Z,100821.75
2023-01-07T09:54:12.752Z,100827.25
2023-01-07T09:56:41.225Z,100814.47
2023-01-07T09:59:12.665Z,100819.34
2023-01-07T10:02:04.575Z,100820.41
2023-01-07T10:05:01.890Z,100818.16
2023-01-07T10:07:44.594Z,100811.19
2023-01-07T10:10:45.925Z,100812.28
2023-01-07T10:13:42.802Z,100813.31
2023-01-07T10:16:55.049Z,100812.09
2023-01-07T10:19:35.583Z,100808.94
2023-01-07T10:22:36.638Z,100805.00
2023-01-07T10:25:15.917Z,100807.81
2023-01-07T10:27:46.363Z,100796.28
2023-01-07T10:30:27.071Z,100791.69
2023-01-07T10:33:15.549Z,100786.00
2023-01-07T10:35:44.813Z,100782.34
2023-01-07T10:38:19.540Z,100777.72
2023-01-07T10:40:57.159Z,100777.31
2023-01-07T10:43:57.025Z,100780.09
2023-01-07T10:47:13.131Z,100773.44
2023-01-07T10:50:17.389Z,100770.88
2023-01-07T10:52:57.386Z,100774.19
2023-01-07T10:55:45.216Z,100764.03
2023-01-07T10:58:13.526Z,100769.31
2023-01-07T11:00:41.892Z,100766.44
2023-01-07T11:03:23.978Z,100764.66
2023-01-07T11:06:03.052Z,100748.69
2023-01-07T11:08:40.186Z,100744.78
2023-01-07T11:11:18.727Z,100745.16
2023-01-07T11:14:00.045Z,100740.59
2023-01-07T11:16:37.401Z,100743.75
2023-01-07T11:19:09.097Z,100739.63
2023-01-07T11:21:43.190Z,100737.06
2023-01-07T11:24:36.234Z,100727.63
2023-01-07T11:27:34.257Z,100722.06
2023-01-07T11:30:27.064Z,100714.53
2023-01-07T11:33:04.570Z,100714.28
2023-01-07T11:35:32.687Z,100712.56
2023-01-07T11:38:00.625Z,100696.75
2023-01-07T11:40:32.970Z,100683.34
2023-01-07T11:43:17.110Z,100694.59
2023-01-07T11:46:19.264Z,100683.25
2023-01-07T11:49:03.196Z,100676.47
2023-01-07T11:51:40.872Z,100671.34
2023-01-07T11:54:29.685Z,100674.84
2023-01-07T11:57:21.792Z,100665.38
2023-01-07T12:00:13.920Z,100659.78
2023-01-07T12:02:42.056Z,100664.81
2023-01-07T12:05:33.189Z,100665.19
2023-01-07T12:08:01.716Z,100665.50
2023-01-07T12:10:38.707Z,100654.16
2023-01-07T12:13:21.860Z,100652.78
2023-01-07T12:15:58.472Z,100646.75
2023-01-07T12:18:54.898Z,100646.38
2023-01-07T12:22:08.823Z,100640.56
2023-01-07T12:25:30.532Z,100632.44
2023-01-07T12:28:19.369Z,100636.03
2023-01-07T12:31:40.189Z,100635.56
2023-01-07T12:34:26.566Z,100631.66
2023-01-07T12:37:02.547Z,100628.91
2023-01-07T12:39:45.456Z,100626.38
2023-01-07T12:42:39.538Z,100616.06
2023-01-07T12:45:23.525Z,100613.81
2023-01-07T12:48:01.417Z,100615.13
2023-01-07T12:50:54.816Z,100617.34
2023-01-07T12:53:44.293Z,100614.13
2023-01-07T12:56:43.491Z,100606.25
2023-01-07T12:59:46.281Z,100615.41
2023-01-07T13:02:35.792Z,100610.13
2023-01-07T13:05:20.356Z,100613.28
2023-01-07T13:08:16.274Z,100603.38
2023-01-07T13:11:14.415Z,100605.06
2023-01-07T13:13:51.027Z,100605.19
2023-01-07T13:16:19.180Z,100605.22
2023-01-07T13:18:46.874Z,100604.47
2023-01-07T13:21:18.155Z,100604.50
2023-01-07T13:24:19.057Z,100604.53
2023-01-07T13:26:50.197Z,100594.47
2023-01-07T13:29:44.084Z,100600.31
2023-01-07T13:32:52.325Z,100597.56
2023-01-07T13:35:44.431Z,100594.00
2023-01-07T13:38:41.691Z,100595.94
2023-01-07T13:41:31.051Z,100590.91
2023-01-07T13:44:04.884Z,100594.75
2023-01-07T13:46:41.995Z,100587.97
2023-01-07T13:49:39.626Z,100584.72
2023-01-07T13:52:29.847Z,100590.72
2023-01-07T13:55:02.129Z,100588.22
2023-01-07T13:57:51.033Z,100592.63
2023-01-07T14:01:02.128Z,100588.38
2023-01-07T14:03:34.024Z,100584.97
2023-01-07T14:06:23.871Z,100590.09
2023-01-07T14:09:06.436Z,100587.09
2023-01-07T14:11:36.401Z,100594.88
2023-01-07T14:14:23.094Z,100593.28
2023-01-07T14:17:47.019Z,100586.94
2023-01-07T14:21:15.265Z,100581.31
2023-01-07T14:24:05.050Z,100578.06
2023-01-07T14:26:46.901Z,100581.47
2023-01-07T14:29:25.871Z,100584.91
2023-01-07T14:32:26.378Z,100580.16
2023-01-07T14:35:08.335Z,100583.13
2023-01-07T14:37:43.820Z,100581.22
2023-01-07T14:41:04.196Z,100578.53
2023-01-07T14:43:43.707Z,100578.25
2023-01-07T14:46:23.858Z,100569.56
2023-01-07T14:49:01.826Z,100564.88
2023-01-07T14:52:11.557Z,100563.56
2023-01-07T14:55:13.671Z,100569.09
2023-01-07T14:58:00.180Z,100568.38
2023-01-07T15:01:09.192Z,100568.88
2023-01-07T15:03:52.837Z,100560.88
2023-01-07T15:06:39.344Z,100560.41
2023-01-07T15:09:41.720Z,100558.22
2023-01-07T15:12:38.662Z,100563.38
2023-01-07T15:15:42.134Z,100553.09
2023-01-07T15:18:12.151Z,100558.97
2023-01-07T15:21:04.689Z,100559.09
2023-01-07T15:23:44.401Z,100563.00
2023-01-07T15:26:40.772Z,100566.16
2023-01-07T15:29:57.903Z,100569.94
2023-01-07T15:32:38.420Z,100568.75
2023-01-07T15:35:19.898Z,100579.13
2023-01-07T15:37:50.218Z,100582.00
2023-01-07T15:40:24.740Z,100574.84
2023-01-07T15:42:57.329Z,100567.69
2023-01-07T15:45:27.838Z,100569.78
2023-01-07T15:48:08.090Z,100573.44
2023-01-07T15:50:40.971Z,100565.13
2023-01-07T15:53:11.780Z,100566.16
2023-01-07T15:55:54.839Z,100574.53
2023-01-07T15:58:40.285Z,100566.03
2023-01-07T16:01:21.754Z,100564.44
2023-01-07T16:03:55.216Z,100560.66
2023-01-07T16:06:31.642Z,100566.94
2023-01-07T16:09:04.492Z,100563.91
2023-01-07T16:11:32.682Z,100572.28
2023-01-07T16:14:13.869Z,100566.47
2023-01-07T16:16:41.997Z,100559.84
2023-01-07T16:19:21.053Z,100557.38
2023-01-07T16:21:59.326Z,100556.03
2023-01-07T16:24:27.915Z,100554.00
2023-01-07T16:27:05.285Z,100548.19
2023-01-07T16:29:50.937Z,100548.66
2023-01-07T16:32:20.999Z,100546.53
2023-01-07T16:35:01.439Z,100527.53
2023-01-07T16:37:30.208Z,100539.19
2023-01-07T16:39:58.569Z,100531.72
2023-01-07T16:42:27.544Z,100535.41
2023-01-07T16:44:55.471Z,100539.00
2023-01-07T16:47:32.828Z,100529.63
2023-01-07T16:50:16.179Z,100533.25
2023-01-07T16:52:56.018Z,100535.72
2023-01-07T16:56:10.304Z,100533.13
2023-01-07T16:58:55.585Z,100527.44
2023-01-07T17:01:35.416Z,100519.25
2023-01-07T17:04:15.288Z,100525.63
2023-01-07T17:06:43.941Z,100537.25
2023-01-07T17:09:33.420Z,100526.91
2023-01-07T17:12:55.342Z,100529.13
2023-01-07T17:15:43.661Z,100527.97
2023-01-07T17:18:11.392Z,100531.97
2023-01-07T17:20:51.562Z,100530.94
2023-01-07T17:23:25.608Z,100526.56
2023-01-07T17:26:08.887Z,100524.56
2023-01-07T17:28:49.334Z,100532.59
2023-01-07T17:31:17.182Z,100534.16
2023-01-07T17:33:45.504Z,100541.41
2023-01-07T17:36:24.950Z,100537.97
2023-01-07T17:38:53.836Z,100540.66
2023-01-07T17:41:42.502Z,100536.38
2023-01-07T17:44:12.753Z,100543.31
2023-01-07T17:46:41.467Z,100540.16
2023-01-07T17:49:11.574Z,100545.53
2023-01-07T17:51:43.910Z,100553.31
2023-01-07T17:54:24.629Z,100546.94
2023-01-07T17:56:52.963Z,100542.22
2023-01-07T17:59:26.119Z,100552.81
2023-01-07T18:01:55.123Z,100550.78
2023-01-07T18:04:23.363Z,100546.06
2023-01-07T18:06:51.229Z,100548.16
2023-01-07T18:09:19.081Z,100545.38
2023-01-07T18:12:05.154Z,100554.81
2023-01-07T18:14:33.345Z,100541.03
2023-01-07T18:17:01.280Z,100551.94
2023-01-07T18:19:29.152Z,100549.72
2023-01-07T18:21:56.597Z,100551.00
2023-01-07T18:24:24.688Z,100555.47
2023-01-07T18:26:52.693Z,100555.19
2023-01-07T18:29:21.562Z,100558.81
2023-01-07T18:31:52.460Z,100544.06
2023-01-07T18:34:20.630Z,100547.72
2023-01-07T18:36:48.188Z,100546.13
2023-01-07T18:39:19.788Z,100539.41
2023-01-07T18:41:51.539Z,100538.00
2023-01-07T18:44:21.391Z,100540.06
2023-01-07T18:46:49.524Z,100539.91
2023-01-07T18:49:17.314Z,100555.81
2023-01-07T18:51:47.115Z,100552.53
2023-01-07T18:54:15.617Z,100550.03
2023-01-07T18:56:45.761Z,100550.97
2023-01-07T18:59:14.589Z,100546.75
2023-01-07T19:01:42.816Z,100550.66
2023-01-07T19:04:10.721Z,100551.47
2023-01-07T19:06:38.591Z,100562.81
2023-01-07T19:09:06.493Z,100546.47
2023-01-07T19:11:34.484Z,100557.81
2023-01-07T19:14:01.959Z,100558.44
2023-01-07T19:16:29.818Z,100553.09
2023-01-07T19:18:57.344Z,100547.09
2023-01-07T19:21:26.670Z,100554.66
2023-01-07T19:23:54.783Z,100552.47
2023-01-07T19:26:22.727Z,100555.78
2023-01-07T19:28:50.320Z,100551.38
2023-01-07T19:31:18.214Z,100556.13
2023-01-07T19:33:45.758Z,100553.28
2023-01-07T19:36:15.858Z,100544.47
2023-01-07T19:38:48.336Z,100550.47
2023-01-07T19:41:19.738Z,100562.88
2023-01-07T19:43:48.309Z,100564.78
2023-01-07T19:46:16.494Z,100561.66
2023-01-07T19:48:47.370Z,100558.16
2023-01-07T19:51:15.579Z,100562.44
2023-01-07T19:53:43.173Z,100554.72
2023-01-07T19:56:12.897Z,100550.16
2023-01-07T19:58:41.896Z,100547.47
2023-01-07T20:01:15.392Z,100557.38
2023-01-07T20:03:45.499Z,100557.69
2023-01-07T20:06:16.869Z,100553.47
2023-01-07T20:08:44.858Z,100544.97
2023-01-07T20:11:13.295Z,100559.75
2023-01-07T20:13:41.629Z,100566.19
2023-01-07T20:16:16.422Z,100563.38
2023-01-07T20:18:47.766Z,100567.00
2023-01-07T20:21:19.472Z,100572.66
2023-01-07T20:23:47.566Z,100568.56
2023-01-07T20:26:25.673Z,100569.34
2023-01-07T20:28:53.338Z,100572.03
2023-01-07T20:31:23.798Z,100567.16
2023-01-07T20:33:52.048Z,100572.03
2023-01-07T20:36:23.851Z,100570.94
2023-01-07T20:38:51.743Z,100564.00
2023-01-07T20:41:27.707Z,100564.34
2023-01-07T20:43:58.929Z,100565.75
2023-01-07T20:46:29.664Z,100571.09
2023-01-07T20:48:58.016Z,100558.34
2023-01-07T20:51:28.449Z,100561.97
2023-01-07T20:53:56.877Z,100564.66
2023-01-07T20:56:26.286Z,100564.97
2023-01-07T20:58:54.012Z,100558.66
2023-01-07T21:01:22.128Z,100559.28
2023-01-07T21:03:50.546Z,100557.09
2023-01-07T21:06:20.449Z,100559.28
2023-01-07T21:08:48.655Z,100559.78
2023-01-07T21:11:22.071Z,100561.03
2023-01-07T21:13:52.691Z,100563.69
2023-01-07T21:16:20.618Z,100559.94
2023-01-07T21:18:48.660Z,100560.09
2023-01-07T21:21:22.225Z,100566.84
2023-01-07T21:23:50.096Z,100557.25
2023-01-07T21:26:20.136Z,100558.66
2023-01-07T21:28:47.776Z,100556.00
2023-01-07T21:31:17.143Z,100553.00
2023-01-07T21:33:45.186Z,100555.22
2023-01-07T21:36:19.265Z,100554.09
2023-01-07T21:38:54.094Z,100555.38
2023-01-07T21:41:23.806Z,100554.59
2023-01-07T21:43:51.415Z,100550.19
2023-01-07T21:46:20.654Z,100545.31
2023-01-07T21:48:48.361Z,100543.59
2023-01-07T21:51:27.471Z,100547.81
2023-01-07T21:53:57.492Z,100548.94
2023-01-07T21:56:32.907Z,100556.47
2023-01-07T21:59:00.879Z,100557.25
2023-01-07T22:01:29.535Z,100556.00
2023-01-07T22:03:59.157Z,100547.03
2023-01-07T22:06:38.880Z,100556.47
2023-01-07T22:09:14.023Z,100556.47
2023-01-07T22:11:43.163Z,100559.94
2023-01-07T22:14:18.133Z,100550.34
2023-01-07T22:16:48.910Z,100553.63
2023-01-07T22:19:16.950Z,100556.94
2023-01-07T22:21:44.870Z,100552.22
2023-01-07T22:24:13.770Z,100548.59
2023-01-07T22:26:41.561Z,100547.66
2023-01-07T22:29:09.493Z,100552.34
2023-01-07T22:31:38.144Z,100551.09
2023-01-07T22:34:07.597Z,100545.28
2023-01-07T22:36:54.322Z,100551.72
2023-01-07T22:39:45.816Z,100547.00
2023-01-07T22:42:30.009Z,100542.31
2023-01-07T22:45:13.251Z,100552.50
2023-01-07T22:47:47.891Z,100539.44
2023-01-07T22:50:17.304Z,100537.41
2023-01-07T22:52:46.125Z,100535.38
2023-01-07T22:55:13.912Z,100538.66
2023-01-07T22:57:42.099Z,100536.91
2023-01-07T23:00:36.894Z,100540.69
2023-01-07T23:03:04.926Z,100529.03
2023-01-07T23:05:32.900Z,100520.56
2023-01-07T23:08:00.849Z,100520.25
2023-01-07T23:10:28.384Z,100529.03
2023-01-07T23:12:56.343Z,100520.72
2023-01-07T23:15:24.381Z,100515.06
2023-01-07T23:17:52.291Z,100518.38
2023-01-07T23:20:19.818Z,100521.34
2023-01-07T23:22:47.830Z,100514.28
2023-01-07T23:25:15.573Z,100523.38
2023-01-07T23:27:43.420Z,100524.47
2023-01-07T23:30:12.169Z,100518.03
2023-01-07T23:32:40.083Z,100515.84
2023-01-07T23:35:08.162Z,100514.91
2023-01-07T23:37:35.979Z,100517.09
2023-01-07T23:40:04.903Z,100516.94
2023-01-07T23:42:32.856Z,100517.25
2023-01-07T23:45:00.437Z,100522.03
2023-01-07T23:47:28.272Z,100525.06
2023-01-07T23:49:55.801Z,100520.63
2023-01-07T23:52:23.729Z,100517.19
2023-01-07T23:54:51.204Z,100516.38
2023-01-07T23:57:19.042Z,100518.44
2023-01-07T23:59:46.515Z,100519.53
